Gregory, South Dakota
Current Conditions -  °F | °C
As of 1:53 AM on Thursday 27 Nov 2014 (Local Time) from KICR Reporting Station
Overcast Overcast  
Wind Chill:   Ceiling: 4100
Heat Index: 17°   Visibility: 10mi
Dew Point:   Wind: 10mph
Humidity: 68%   Direction: 90°E
Pressure: 30.4"   Gusts: NA
Location:  43.23°N, 99.43°W
Report Text: KICR 270753Z AUTO 09009KT 10SM OVC041 M08/M13 A3040 RMK AO2 SLP327 T10831133
Loading
Personal Weather Stations






























Interactive Weather Map New forecast layout! Learn more

10-Day Weather Forecast

Advertisements
Track Severe Weather on mobile